aviador You're here:

KCCA Decoded Metar

in _UNIDENTIFIED
Report Time2018-06-25 11:35:00
UTC Time2018-06-25 11:58:38
Flight Rules lifr LIFR
WindCalm
Visibility6437 m
Phenomena:Mist
Clouds:Overcast 003 Hf
Expected CloudBase > 400 ft AGL from Temp-Dew spread
Ceiling300 ft
Temp21°C (ISA +7)
Dew Point20°C (94% RH)
QNH1016 hPa
Density Alt1,545 ft
Elevation515 ft
Report Wrong Elevation
Raw Report
KCCA 251135Z AUTO 00000KT 4SM BR OVC003 21/20 A3001 RMK AO2=

Extra information for KCCA:More info

Metar Taf Metar & Taf Last 4 Metars F.Rules Stats Wind Profile Meteogram Temp Stats Metar ALERT Operation Metar Decoded Social comments